Time;durP1;ratioP1;P1;durP2;ratioP2;P2;SDS_P1;SDS_P2;PMS_P1;PMS_P2;Temp;Humidity;BMP_temperature;BMP_pressure;BME280_temperature;BME280_humidity;BME280_pressure;Samples;Min_cycle;Max_cycle;Signal;HPM_P1;HPM_P2
2022/04/06 00:00:14;;;;;;;9.33;2.10;;;12.70;91.20;;;;;;4999275;28;20030;-82
2022/04/06 00:02:40;;;;;;;5.72;2.35;;;12.70;91.10;;;;;;4990240;28;20327;-83
2022/04/06 00:05:10;;;;;;;6.87;2.17;;;12.70;91.50;;;;;;5000914;28;20026;-82
2022/04/06 00:07:37;;;;;;;6.57;1.92;;;12.70;90.80;;;;;;5011793;28;20034;-83
2022/04/06 00:10:04;;;;;;;7.95;2.05;;;12.60;91.00;;;;;;5002195;28;20438;-83
2022/04/06 00:12:30;;;;;;;10.32;2.25;;;12.60;91.00;;;;;;4989339;28;20057;-83
2022/04/06 00:14:56;;;;;;;7.67;1.93;;;12.60;90.60;;;;;;4960926;28;20922;-82
2022/04/06 00:17:21;;;;;;;7.15;1.95;;;12.60;90.90;;;;;;4999697;28;20184;-83
2022/04/06 00:19:47;;;;;;;5.50;1.80;;;12.70;91.20;;;;;;4975766;28;20025;-83
2022/04/06 00:22:13;;;;;;;4.93;2.10;;;12.60;91.10;;;;;;4999655;28;20029;-82
2022/04/06 00:24:38;;;;;;;5.63;1.90;;;12.60;91.10;;;;;;4985717;28;20117;-83
2022/04/06 00:27:04;;;;;;;6.90;1.88;;;12.60;91.20;;;;;;5001317;28;20061;-82
2022/04/06 00:29:30;;;;;;;6.77;1.80;;;12.60;91.30;;;;;;4984925;28;20057;-82
2022/04/06 00:31:56;;;;;;;5.10;1.75;;;12.60;91.10;;;;;;4999515;28;20037;-82
2022/04/06 00:35:28;;;;;;;5.82;1.73;;;12.60;91.10;;;;;;4973075;28;20026;-82
2022/04/06 00:37:07;;;;;;;6.10;1.88;;;12.60;91.10;;;;;;4999771;28;20038;-85
2022/04/06 00:39:33;;;;;;;6.37;1.73;;;12.60;91.00;;;;;;4986868;28;20028;-82
2022/04/06 00:41:58;;;;;;;6.50;1.73;;;12.50;91.20;;;;;;4996274;28;20053;-82
2022/04/06 00:44:24;;;;;;;6.50;1.98;;;12.60;91.10;;;;;;4998325;28;20494;-82
2022/04/06 00:46:50;;;;;;;9.50;2.37;;;12.50;91.00;;;;;;5004083;28;20049;-82
2022/04/06 00:49:15;;;;;;;7.05;2.15;;;12.50;90.60;;;;;;5000615;28;20091;-81
2022/04/06 00:51:46;;;;;;;7.57;2.03;;;12.50;90.90;;;;;;4985889;28;20314;-82
2022/04/06 00:54:14;;;;;;;7.75;2.13;;;12.50;90.80;;;;;;5017516;28;20057;-82
2022/04/06 00:56:42;;;;;;;5.47;1.73;;;12.50;91.00;;;;;;4981222;28;20031;-82
2022/04/06 00:59:08;;;;;;;7.20;1.83;;;12.50;91.10;;;;;;5011571;28;20414;-82
2022/04/06 01:01:34;;;;;;;5.28;1.60;;;12.50;91.10;;;;;;4989353;28;20053;-82
2022/04/06 01:04:00;;;;;;;6.67;1.90;;;12.50;91.20;;;;;;4975271;28;20054;-81
2022/04/06 01:06:26;;;;;;;6.63;1.90;;;12.50;90.90;;;;;;4990019;28;20036;-82
2022/04/06 01:08:52;;;;;;;6.30;1.80;;;12.40;91.30;;;;;;5014940;28;20074;-82
2022/04/06 01:11:19;;;;;;;5.88;1.92;;;12.40;90.90;;;;;;4997432;28;20030;-82
2022/04/06 01:13:46;;;;;;;3.22;1.58;;;12.40;90.70;;;;;;4991829;28;20092;-82
2022/04/06 01:16:11;;;;;;;5.93;1.75;;;12.40;90.70;;;;;;5000337;28;20026;-82
2022/04/06 01:18:37;;;;;;;6.37;1.70;;;12.40;90.50;;;;;;4981328;28;20033;-81
2022/04/06 01:21:06;;;;;;;6.72;1.55;;;12.40;90.70;;;;;;5006025;28;20319;-82
2022/04/06 01:23:32;;;;;;;6.70;1.93;;;12.40;90.30;;;;;;4998711;28;20125;-81
2022/04/06 01:25:57;;;;;;;4.43;1.58;;;12.40;90.10;;;;;;5011999;28;20569;-82
2022/04/06 01:28:24;;;;;;;4.87;1.50;;;12.30;90.40;;;;;;4996567;28;20502;-80
2022/04/06 01:30:49;;;;;;;5.00;1.50;;;12.40;90.00;;;;;;5005165;28;20034;-81
2022/04/06 01:33:15;;;;;;;5.35;1.30;;;12.30;90.40;;;;;;4983261;28;20032;-82
2022/04/06 01:35:42;;;;;;;6.37;1.40;;;12.30;90.30;;;;;;4984367;28;22568;-82
2022/04/06 01:38:09;;;;;;;3.28;1.20;;;12.30;90.30;;;;;;5017347;28;20029;-82
2022/04/06 01:40:35;;;;;;;4.13;1.40;;;12.30;90.80;;;;;;4978591;28;20663;-81
2022/04/06 01:43:00;;;;;;;4.55;1.35;;;12.30;90.30;;;;;;5004493;28;20544;-82
2022/04/06 01:45:26;;;;;;;5.30;1.27;;;12.30;90.30;;;;;;4989340;28;20022;-82
2022/04/06 01:47:52;;;;;;;3.42;1.30;;;12.40;89.90;;;;;;4983495;28;20137;-82
2022/04/06 01:53:03;;;;;;;6.63;1.95;;;12.40;90.50;;;;;;4986629;28;20027;-81
2022/04/06 01:55:29;;;;;;;6.10;1.65;;;12.40;90.50;;;;;;4995798;28;20088;-82
2022/04/06 01:57:56;;;;;;;5.90;1.60;;;12.40;90.20;;;;;;4984957;28;20105;-81
2022/04/06 02:00:22;;;;;;;6.38;2.13;;;12.40;90.40;;;;;;5002624;28;20052;-81
2022/04/06 02:02:50;;;;;;;4.83;1.50;;;12.40;90.00;;;;;;4976752;28;20377;-82
2022/04/06 02:05:16;;;;;;;6.10;1.80;;;12.40;90.20;;;;;;5018997;28;20557;-81
2022/04/06 02:07:48;;;;;;;6.13;1.73;;;12.40;90.00;;;;;;4973409;28;20026;-82
2022/04/06 02:10:15;;;;;;;5.45;1.70;;;12.40;90.30;;;;;;5015670;28;20025;-82
2022/04/06 02:12:41;;;;;;;6.85;1.85;;;12.40;90.20;;;;;;4973211;28;20068;-81
2022/04/06 02:15:12;;;;;;;8.67;2.47;;;12.40;90.40;;;;;;4980852;28;20458;-82
2022/04/06 02:17:38;;;;;;;6.45;1.70;;;12.40;90.00;;;;;;4987665;28;20026;-82
2022/04/06 02:20:05;;;;;;;6.38;1.70;;;12.40;90.10;;;;;;4983250;28;20026;-81
2022/04/06 02:22:30;;;;;;;5.55;1.60;;;12.40;90.10;;;;;;4986519;28;20033;-82
2022/04/06 02:24:56;;;;;;;7.03;1.67;;;12.40;90.00;;;;;;4980117;28;20030;-83
2022/04/06 02:27:22;;;;;;;8.48;2.40;;;12.40;90.30;;;;;;4996295;28;20156;-81
2022/04/06 02:29:48;;;;;;;6.05;1.80;;;12.30;90.00;;;;;;4983055;28;20759;-82
2022/04/06 02:32:14;;;;;;;6.07;1.50;;;12.30;90.00;;;;;;4969403;28;20122;-82
2022/04/06 02:34:40;;;;;;;7.00;1.67;;;12.30;90.20;;;;;;4990111;28;20022;-81
2022/04/06 02:37:08;;;;;;;6.35;1.85;;;12.30;90.30;;;;;;4980608;28;20501;-83
2022/04/06 02:39:34;;;;;;;6.60;1.83;;;12.30;90.00;;;;;;4985534;28;20026;-82
2022/04/06 02:42:00;;;;;;;5.20;1.50;;;12.30;90.20;;;;;;5016409;28;20205;-82
2022/04/06 02:44:26;;;;;;;7.47;1.60;;;12.30;90.50;;;;;;4978480;28;20128;-82
2022/04/06 02:46:51;;;;;;;7.63;2.08;;;12.30;90.40;;;;;;4997618;28;20041;-82
2022/04/06 02:49:18;;;;;;;7.07;2.10;;;12.30;90.50;;;;;;4954325;28;20266;-81
2022/04/06 02:51:43;;;;;;;5.82;1.80;;;12.30;90.90;;;;;;5009068;28;20556;-82
2022/04/06 02:54:10;;;;;;;6.30;2.10;;;12.30;90.40;;;;;;4988376;28;20034;-82
2022/04/06 02:56:36;;;;;;;8.10;2.70;;;12.30;90.30;;;;;;4993112;28;20034;-82
2022/04/06 02:59:01;;;;;;;7.72;2.25;;;12.30;90.70;;;;;;5000061;28;20030;-82
2022/04/06 03:01:28;;;;;;;6.22;2.67;;;12.30;90.50;;;;;;4984239;28;20025;-82
2022/04/06 03:03:54;;;;;;;4.90;1.90;;;12.30;90.50;;;;;;4994441;28;20057;-82
2022/04/06 03:06:19;;;;;;;6.07;2.00;;;12.30;90.60;;;;;;4979808;28;20133;-82
2022/04/06 03:08:45;;;;;;;4.53;1.80;;;12.30;90.50;;;;;;4981842;28;20113;-82
2022/04/06 03:11:11;;;;;;;10.23;2.28;;;12.30;90.70;;;;;;4991245;28;20040;-82
2022/04/06 03:13:37;;;;;;;7.10;2.43;;;12.20;90.50;;;;;;4998799;28;20025;-82
2022/04/06 03:16:03;;;;;;;7.60;1.90;;;12.30;90.30;;;;;;4986029;28;20033;-82
2022/04/06 03:18:28;;;;;;;7.47;2.20;;;12.30;90.50;;;;;;4968885;28;20119;-82
2022/04/06 03:20:54;;;;;;;4.00;1.80;;;12.20;90.30;;;;;;4983108;28;20034;-85
2022/04/06 03:23:21;;;;;;;4.68;2.00;;;12.20;90.50;;;;;;4998894;28;20259;-82
2022/04/06 03:25:48;;;;;;;5.93;2.00;;;12.20;90.70;;;;;;4988155;28;20555;-82
2022/04/06 03:28:14;;;;;;;5.00;1.73;;;12.20;90.50;;;;;;4982819;28;20565;-82
2022/04/06 03:30:40;;;;;;;8.05;2.00;;;12.20;90.70;;;;;;5012571;28;20497;-82
2022/04/06 03:33:09;;;;;;;5.50;1.98;;;12.20;90.40;;;;;;4991384;28;20025;-82
2022/04/06 03:35:35;;;;;;;5.25;1.80;;;12.20;90.60;;;;;;4976506;28;20046;-82
2022/04/06 03:38:01;;;;;;;5.97;1.90;;;12.10;90.70;;;;;;5014171;28;20037;-82
2022/04/06 03:40:28;;;;;;;6.35;1.60;;;12.20;90.60;;;;;;4988588;28;20216;-82
2022/04/06 03:42:55;;;;;;;5.63;2.00;;;12.10;90.60;;;;;;4992362;28;20294;-84
2022/04/06 03:45:21;;;;;;;5.68;2.15;;;12.20;90.40;;;;;;5005158;28;20030;-84
2022/04/06 03:47:47;;;;;;;5.38;1.83;;;12.10;90.30;;;;;;5006509;28;20169;-84
2022/04/06 03:50:14;;;;;;;7.00;2.00;;;12.10;90.30;;;;;;4979031;28;20034;-84
2022/04/06 03:52:40;;;;;;;6.38;1.95;;;12.10;90.30;;;;;;4986317;28;20091;-83
2022/04/06 03:55:08;;;;;;;4.70;1.77;;;12.10;90.50;;;;;;5007635;28;20042;-83
2022/04/06 03:57:36;;;;;;;6.20;1.77;;;12.20;90.60;;;;;;4985855;28;20742;-81
2022/04/06 04:00:04;;;;;;;4.47;1.70;;;12.10;90.40;;;;;;5024907;28;20021;-81
2022/04/06 04:02:31;;;;;;;6.38;1.75;;;12.10;90.40;;;;;;5010699;28;20030;-81
2022/04/06 04:04:56;;;;;;;5.00;1.98;;;12.10;90.20;;;;;;4975644;28;20457;-81
2022/04/06 04:07:22;;;;;;;5.83;2.00;;;12.10;90.30;;;;;;4963378;28;20321;-81
2022/04/06 04:09:49;;;;;;;6.20;1.85;;;12.10;90.30;;;;;;4997314;28;20057;-82
2022/04/06 04:12:16;;;;;;;5.63;1.60;;;12.10;90.30;;;;;;4964494;28;20041;-82
2022/04/06 04:14:41;;;;;;;4.53;1.63;;;12.10;90.20;;;;;;5015693;28;20218;-81
2022/04/06 04:17:07;;;;;;;5.33;1.30;;;12.10;90.60;;;;;;4983172;28;20033;-81
2022/04/06 04:19:33;;;;;;;4.60;1.40;;;12.10;90.90;;;;;;5005860;28;20052;-81
2022/04/06 04:21:58;;;;;;;4.10;1.52;;;12.10;90.50;;;;;;4974058;28;20384;-81
2022/04/06 04:24:24;;;;;;;4.80;1.70;;;12.10;90.50;;;;;;5018038;28;20384;-81
2022/04/06 04:26:49;;;;;;;5.38;1.40;;;12.10;90.50;;;;;;4997835;28;20394;-81
2022/04/06 04:29:15;;;;;;;6.10;1.60;;;12.10;90.20;;;;;;4982628;28;20522;-81
2022/04/06 04:31:41;;;;;;;3.70;1.52;;;12.10;90.30;;;;;;4983577;28;20033;-82
2022/04/06 04:34:07;;;;;;;5.77;1.80;;;12.10;90.50;;;;;;4978977;28;20038;-81
2022/04/06 04:36:32;;;;;;;7.37;1.60;;;12.10;90.50;;;;;;4962974;28;20559;-82
2022/04/06 04:38:58;;;;;;;6.07;2.00;;;12.10;90.20;;;;;;4999153;28;20390;-81
2022/04/06 04:41:24;;;;;;;5.28;1.70;;;12.10;90.10;;;;;;5004637;28;20115;-82
2022/04/06 04:43:50;;;;;;;3.33;1.50;;;12.10;90.20;;;;;;4998307;28;20079;-81
2022/04/06 04:46:18;;;;;;;4.68;1.60;;;12.10;90.50;;;;;;4994588;28;20455;-81
2022/04/06 04:48:45;;;;;;;6.20;1.87;;;12.10;90.40;;;;;;5013854;28;20105;-81
2022/04/06 04:51:11;;;;;;;4.82;1.48;;;12.10;90.20;;;;;;4989119;28;20553;-81
2022/04/06 04:53:37;;;;;;;5.18;1.67;;;12.10;90.40;;;;;;4998729;28;20036;-81
2022/04/06 04:56:03;;;;;;;4.50;1.80;;;12.10;90.30;;;;;;5001458;28;20026;-81
2022/04/06 04:58:29;;;;;;;5.63;1.80;;;12.10;90.30;;;;;;4988775;28;20038;-81
2022/04/06 05:00:55;;;;;;;5.07;1.80;;;12.00;90.30;;;;;;5004496;28;20582;-82
2022/04/06 05:03:21;;;;;;;4.77;1.50;;;12.00;90.00;;;;;;4991414;28;20633;-82
2022/04/06 05:05:50;;;;;;;4.03;1.70;;;12.00;90.40;;;;;;5003048;28;20793;-81
2022/04/06 05:08:16;;;;;;;3.63;1.50;;;12.00;90.50;;;;;;4964657;28;20056;-81
2022/04/06 05:10:41;;;;;;;6.15;1.63;;;12.00;90.40;;;;;;5005018;28;20506;-82
2022/04/06 05:13:08;;;;;;;6.23;1.53;;;12.00;90.60;;;;;;4984137;28;20065;-82
2022/04/06 05:15:33;;;;;;;6.88;1.42;;;12.00;90.50;;;;;;4998911;28;20191;-82
2022/04/06 05:17:59;;;;;;;5.28;1.60;;;12.00;90.40;;;;;;4992262;28;20068;-81
2022/04/06 05:20:25;;;;;;;4.97;1.30;;;12.00;90.50;;;;;;5001134;28;20490;-82
2022/04/06 05:22:50;;;;;;;5.32;1.60;;;12.00;90.40;;;;;;4983569;28;20022;-81
2022/04/06 05:25:16;;;;;;;3.13;1.40;;;12.00;90.00;;;;;;4981800;28;20030;-81
2022/04/06 05:27:47;;;;;;;3.87;1.33;;;12.00;90.50;;;;;;4998101;28;20081;-81
2022/04/06 05:30:18;;;;;;;4.60;1.40;;;12.00;90.10;;;;;;4986011;28;20034;-82
2022/04/06 05:32:45;;;;;;;3.83;1.27;;;12.00;90.20;;;;;;4988958;28;20085;-84
2022/04/06 05:35:12;;;;;;;4.75;1.30;;;12.00;90.60;;;;;;4999032;28;20298;-83
2022/04/06 05:37:41;;;;;;;4.10;1.63;;;12.00;90.50;;;;;;4987206;28;20124;-84
2022/04/06 05:40:08;;;;;;;5.07;1.53;;;12.00;90.30;;;;;;4980219;28;20041;-84
2022/04/06 05:42:35;;;;;;;4.35;1.58;;;12.00;90.00;;;;;;4999308;28;20037;-84
2022/04/06 05:45:01;;;;;;;3.15;1.40;;;11.90;90.20;;;;;;4989057;28;20034;-83
2022/04/06 05:47:27;;;;;;;4.75;1.35;;;11.90;90.30;;;;;;4997318;28;20569;-84
2022/04/06 05:49:53;;;;;;;3.17;1.55;;;11.90;90.20;;;;;;4989576;28;20026;-84
2022/04/06 05:52:18;;;;;;;3.40;1.60;;;11.90;90.30;;;;;;4996711;28;20057;-84
2022/04/06 05:54:44;;;;;;;4.22;1.80;;;11.90;90.50;;;;;;4982844;28;20026;-84
2022/04/06 05:57:10;;;;;;;5.10;1.80;;;11.90;89.90;;;;;;4989200;28;20040;-85
2022/04/06 05:59:36;;;;;;;4.90;1.58;;;11.80;90.10;;;;;;5003259;28;20030;-84
2022/04/06 06:02:05;;;;;;;2.92;1.40;;;11.80;90.20;;;;;;5000487;28;20026;-82
2022/04/06 06:04:30;;;;;;;4.47;1.23;;;11.80;90.20;;;;;;5013060;28;20026;-81
2022/04/06 06:06:57;;;;;;;5.67;1.60;;;11.80;90.40;;;;;;4981462;28;20500;-84
2022/04/06 06:09:23;;;;;;;5.18;1.50;;;11.80;90.40;;;;;;4988865;28;20045;-84
2022/04/06 06:11:48;;;;;;;3.70;1.67;;;11.80;90.20;;;;;;4982916;28;20084;-84
2022/04/06 06:14:14;;;;;;;4.50;1.70;;;11.80;90.70;;;;;;4991104;28;20525;-83
2022/04/06 06:16:40;;;;;;;4.73;1.73;;;11.80;90.80;;;;;;5008305;28;20406;-84
2022/04/06 06:19:05;;;;;;;7.10;2.00;;;11.80;90.80;;;;;;5014940;28;20304;-84
2022/04/06 06:21:32;;;;;;;5.80;2.03;;;11.80;90.90;;;;;;5002906;28;20538;-84
2022/04/06 06:24:04;;;;;;;7.90;2.65;;;11.80;90.80;;;;;;4987023;28;20036;-85
2022/04/06 06:26:30;;;;;;;9.48;3.15;;;11.90;90.50;;;;;;4981978;28;20030;-83
2022/04/06 06:28:56;;;;;;;8.50;2.90;;;11.90;90.40;;;;;;5000881;28;20038;-84
2022/04/06 06:31:21;;;;;;;6.73;2.50;;;11.90;90.40;;;;;;4993577;28;20657;-84
2022/04/06 06:33:47;;;;;;;4.60;1.60;;;11.90;90.30;;;;;;4984492;28;20052;-83
2022/04/06 06:36:13;;;;;;;5.57;1.50;;;11.90;90.60;;;;;;4997966;28;20168;-84
2022/04/06 06:38:39;;;;;;;2.72;1.20;;;12.00;90.30;;;;;;5001947;28;20068;-84
2022/04/06 06:41:04;;;;;;;2.57;1.30;;;12.00;90.30;;;;;;4970363;28;20761;-84
2022/04/06 06:43:30;;;;;;;2.35;1.13;;;12.00;90.30;;;;;;5002393;28;20033;-84
2022/04/06 06:45:55;;;;;;;4.50;1.37;;;12.00;90.20;;;;;;5000790;28;20194;-83
2022/04/06 06:48:21;;;;;;;2.03;1.00;;;12.10;90.70;;;;;;4987637;28;20080;-84
2022/04/06 06:50:47;;;;;;;3.80;1.10;;;12.10;90.60;;;;;;4980541;28;20405;-84
2022/04/06 06:53:12;;;;;;;1.60;0.90;;;12.20;90.90;;;;;;4982775;28;20253;-84
2022/04/06 06:55:38;;;;;;;3.27;1.23;;;12.20;90.90;;;;;;4984567;28;20037;-84
2022/04/06 06:58:04;;;;;;;5.00;1.30;;;12.30;90.50;;;;;;4978565;28;20315;-83
2022/04/06 07:00:30;;;;;;;4.37;1.33;;;12.30;90.00;;;;;;4979759;28;20807;-83
2022/04/06 07:02:56;;;;;;;2.47;0.88;;;12.30;90.30;;;;;;4973528;28;20045;-84
2022/04/06 07:05:22;;;;;;;2.10;1.00;;;12.30;90.30;;;;;;4978855;28;20688;-84
2022/04/06 07:07:56;;;;;;;5.63;1.20;;;12.30;90.60;;;;;;5015369;28;20060;-84
2022/04/06 07:10:23;;;;;;;2.72;1.00;;;12.40;88.50;;;;;;4995613;28;20034;-84
2022/04/06 07:12:49;;;;;;;3.40;1.20;;;12.30;89.20;;;;;;4968246;28;20022;-83
2022/04/06 07:15:15;;;;;;;2.95;0.98;;;12.40;89.30;;;;;;4980908;28;20045;-84
2022/04/06 07:17:41;;;;;;;3.40;1.10;;;12.40;89.00;;;;;;4990226;28;20563;-84
2022/04/06 07:20:07;;;;;;;3.42;1.08;;;12.40;90.00;;;;;;4996742;28;20486;-84
2022/04/06 07:22:33;;;;;;;2.58;1.20;;;12.40;89.60;;;;;;5000278;28;20183;-85
2022/04/06 07:24:59;;;;;;;5.27;1.00;;;12.40;88.90;;;;;;4995555;28;20099;-83
2022/04/06 07:27:24;;;;;;;2.83;1.02;;;12.40;89.00;;;;;;4975428;28;20053;-83
2022/04/06 07:29:53;;;;;;;2.77;1.00;;;12.40;89.50;;;;;;4980628;28;20038;-82
2022/04/06 07:32:19;;;;;;;4.65;1.30;;;12.40;88.50;;;;;;4989370;28;20073;-84
2022/04/06 07:34:45;;;;;;;3.83;1.40;;;12.40;88.90;;;;;;4996915;28;20038;-84
2022/04/06 07:37:10;;;;;;;3.30;1.10;;;12.40;87.70;;;;;;5005012;28;20230;-84
2022/04/06 07:39:36;;;;;;;3.65;1.27;;;12.40;87.60;;;;;;4993889;28;20072;-84
2022/04/06 07:42:02;;;;;;;3.53;1.17;;;12.30;87.40;;;;;;4983106;28;20042;-84
2022/04/06 07:44:27;;;;;;;3.22;1.30;;;12.40;88.10;;;;;;4958769;28;20117;-83
2022/04/06 07:46:53;;;;;;;8.03;1.40;;;12.40;87.80;;;;;;4971151;28;20026;-83
2022/04/06 07:49:19;;;;;;;3.03;1.10;;;12.40;88.30;;;;;;4985735;28;20325;-84
2022/04/06 07:51:46;;;;;;;3.53;1.00;;;12.40;88.00;;;;;;4998648;28;20076;-83
2022/04/06 07:54:12;;;;;;;3.15;1.00;;;12.40;89.30;;;;;;4991997;28;20326;-83
2022/04/06 07:56:39;;;;;;;3.08;1.15;;;12.40;90.00;;;;;;5006491;28;20026;-84
2022/04/06 07:59:05;;;;;;;2.97;1.15;;;12.50;89.80;;;;;;4968052;28;20503;-84
2022/04/06 08:01:31;;;;;;;4.45;1.02;;;12.50;88.30;;;;;;4994110;28;20041;-84
2022/04/06 08:03:57;;;;;;;2.13;0.90;;;12.60;89.10;;;;;;4977547;28;20489;-83
2022/04/06 08:06:25;;;;;;;5.68;1.10;;;12.60;88.90;;;;;;4994959;28;20219;-84
2022/04/06 08:08:53;;;;;;;3.80;1.20;;;12.70;87.90;;;;;;4997787;28;20441;-84
2022/04/06 08:11:22;;;;;;;3.75;1.00;;;12.70;87.80;;;;;;5013480;28;20026;-84
2022/04/06 08:13:48;;;;;;;3.72;1.25;;;12.80;86.80;;;;;;4973644;28;20061;-84
2022/04/06 08:16:14;;;;;;;5.03;1.30;;;12.80;85.80;;;;;;4975816;28;20041;-83
2022/04/06 08:18:40;;;;;;;3.03;0.90;;;12.80;88.10;;;;;;5001091;28;20037;-84
2022/04/06 08:21:06;;;;;;;2.65;0.88;;;12.80;85.80;;;;;;4960772;28;20463;-84
2022/04/06 08:23:32;;;;;;;3.13;0.95;;;12.80;86.20;;;;;;5000089;28;20083;-84
2022/04/06 08:25:58;;;;;;;2.58;0.90;;;12.80;87.00;;;;;;4985569;28;20120;-85
2022/04/06 08:28:24;;;;;;;3.50;1.00;;;12.90;87.20;;;;;;5015006;28;20131;-84
2022/04/06 08:30:50;;;;;;;1.92;1.02;;;12.80;86.70;;;;;;4954438;28;20038;-81
2022/04/06 08:33:16;;;;;;;2.17;1.10;;;12.80;86.60;;;;;;4993893;28;20203;-81
2022/04/06 08:35:42;;;;;;;1.58;0.90;;;12.80;86.70;;;;;;4974554;28;20041;-82
2022/04/06 08:38:15;;;;;;;3.77;1.30;;;12.90;87.20;;;;;;4972171;28;20376;-81
2022/04/06 08:40:45;;;;;;;3.10;1.20;;;12.90;84.50;;;;;;5014143;28;20121;-81
2022/04/06 08:43:11;;;;;;;3.10;1.00;;;12.90;85.90;;;;;;4995812;28;20220;-81
2022/04/06 08:45:38;;;;;;;2.67;1.10;;;12.90;86.20;;;;;;4989929;28;20076;-81
2022/04/06 08:48:08;;;;;;;3.97;1.27;;;12.90;87.10;;;;;;4961562;28;20182;-81
2022/04/06 08:50:36;;;;;;;2.57;1.00;;;12.90;85.40;;;;;;5002132;28;20780;-81
2022/04/06 08:53:04;;;;;;;2.92;1.10;;;12.90;87.00;;;;;;4978333;28;20030;-81
2022/04/06 08:55:30;;;;;;;3.28;1.30;;;13.00;86.80;;;;;;4983117;28;20105;-81
2022/04/06 08:57:57;;;;;;;2.00;1.15;;;13.00;87.70;;;;;;4995309;28;20029;-82
2022/04/06 09:00:23;;;;;;;3.20;1.00;;;13.00;86.80;;;;;;4985490;28;21180;-81
2022/04/06 09:02:49;;;;;;;2.47;1.20;;;13.00;87.20;;;;;;4999486;28;20026;-81
2022/04/06 09:05:15;;;;;;;3.83;1.30;;;13.00;85.80;;;;;;4997901;28;20038;-81
2022/04/06 09:07:41;;;;;;;4.18;1.30;;;13.00;85.60;;;;;;4966050;28;20598;-82
2022/04/06 09:10:08;;;;;;;3.10;1.10;;;13.10;87.00;;;;;;4994282;28;20129;-81
2022/04/06 09:12:33;;;;;;;2.75;0.90;;;13.10;85.80;;;;;;4999012;28;20029;-81
2022/04/06 09:15:13;;;;;;;4.63;1.10;;;13.10;87.20;;;;;;5004167;28;20095;-81
2022/04/06 09:17:49;;;;;;;3.30;1.25;;;13.20;86.40;;;;;;5001217;28;20140;-81
2022/04/06 09:20:16;;;;;;;3.88;1.35;;;13.20;84.50;;;;;;4977697;28;20248;-81
2022/04/06 09:22:42;;;;;;;3.77;1.40;;;13.30;86.10;;;;;;4971868;28;20315;-81
2022/04/06 09:25:09;;;;;;;3.20;1.20;;;13.30;86.50;;;;;;4994646;28;20494;-81
2022/04/06 09:27:38;;;;;;;3.78;1.33;;;13.40;87.20;;;;;;5002340;28;20521;-82
2022/04/06 09:30:05;;;;;;;4.93;1.40;;;13.50;87.00;;;;;;5013941;28;20090;-81
2022/04/06 09:32:31;;;;;;;6.43;2.63;;;13.60;88.00;;;;;;4983142;28;20797;-81
2022/04/06 09:34:56;;;;;;;4.93;1.50;;;13.80;87.00;;;;;;4983847;28;20049;-81
2022/04/06 09:37:30;;;;;;;3.25;1.38;;;13.90;87.60;;;;;;4984467;28;20037;-81
2022/04/06 09:39:58;;;;;;;3.22;1.48;;;14.10;85.50;;;;;;4996384;28;20044;-81
2022/04/06 09:42:26;;;;;;;3.40;1.27;;;14.20;86.20;;;;;;4997552;28;20025;-81
2022/04/06 09:47:53;;;;;;;4.20;1.20;;;14.30;85.30;;;;;;4995563;28;20120;-81
2022/04/06 09:50:24;;;;;;;3.80;1.02;;;14.40;82.30;;;;;;4960005;28;20021;-80
2022/04/06 09:52:51;;;;;;;3.05;1.30;;;14.40;83.80;;;;;;4965329;28;20661;-84
2022/04/06 09:55:19;;;;;;;4.30;1.47;;;14.40;84.00;;;;;;5014964;28;20489;-83
2022/04/06 09:57:50;;;;;;;3.70;1.35;;;14.30;81.90;;;;;;4988936;28;20316;-83
2022/04/06 10:00:18;;;;;;;2.17;1.10;;;14.40;82.70;;;;;;5015880;28;20030;-84
2022/04/06 10:02:53;;;;;;;4.05;1.10;;;14.40;83.70;;;;;;4978396;28;20179;-83
2022/04/06 10:05:19;;;;;;;3.67;1.50;;;14.40;83.30;;;;;;4983261;28;20384;-83
2022/04/06 10:07:45;;;;;;;2.27;1.30;;;14.40;83.00;;;;;;4971094;28;20228;-83
2022/04/06 10:10:11;;;;;;;2.00;1.08;;;14.40;84.10;;;;;;4996421;28;20342;-84
2022/04/06 10:12:38;;;;;;;2.42;1.10;;;14.40;83.50;;;;;;4973084;28;20140;-84
2022/04/06 10:15:06;;;;;;;2.75;1.30;;;14.40;83.50;;;;;;4992102;28;20030;-83
2022/04/06 10:17:32;;;;;;;2.33;1.10;;;14.50;82.80;;;;;;4982411;28;20030;-83
2022/04/06 10:20:29;;;;;;;3.50;1.25;;;14.50;84.00;;;;;;4986091;28;20053;-83
2022/04/06 10:23:14;;;;;;;3.85;1.30;;;14.50;82.10;;;;;;4991596;28;20032;-86
2022/04/06 10:26:27;;;;;;;5.15;1.63;;;14.50;79.80;;;;;;4999431;28;20033;-81
2022/04/06 10:28:54;;;;;;;3.55;1.50;;;14.40;80.80;;;;;;4961222;28;20103;-81
2022/04/06 10:31:22;;;;;;;3.10;1.60;;;14.30;82.00;;;;;;4995552;28;20022;-81
2022/04/06 10:33:49;;;;;;;3.40;1.70;;;14.20;82.80;;;;;;5007685;28;20061;-81
2022/04/06 10:36:20;;;;;;;2.63;1.45;;;14.10;81.80;;;;;;4970064;28;20084;-81
2022/04/06 10:39:18;;;;;;;3.47;1.63;;;14.00;82.20;;;;;;4980415;28;20203;-81
2022/04/06 10:42:13;;;;;;;5.53;1.95;;;13.90;80.30;;;;;;4979296;28;20071;-81
2022/04/06 10:44:40;;;;;;;3.13;1.70;;;13.80;79.60;;;;;;5011468;28;20775;-80
2022/04/06 10:47:08;;;;;;;2.88;1.45;;;13.70;82.60;;;;;;4981419;28;20030;-81
2022/04/06 10:49:34;;;;;;;3.10;1.52;;;13.70;83.50;;;;;;4982286;28;20029;-81
2022/04/06 10:52:22;;;;;;;2.90;1.73;;;13.60;83.10;;;;;;4989123;28;20406;-81
2022/04/06 10:54:48;;;;;;;3.38;1.77;;;13.60;81.00;;;;;;4983808;28;20029;-81
2022/04/06 10:57:14;;;;;;;3.17;1.90;;;13.60;83.60;;;;;;4991956;28;20060;-80
2022/04/06 10:59:40;;;;;;;4.38;1.90;;;13.60;83.40;;;;;;4998101;28;20343;-81
2022/04/06 11:02:18;;;;;;;4.95;1.95;;;13.50;82.40;;;;;;4995148;28;20032;-81
2022/04/06 11:04:44;;;;;;;6.60;1.90;;;13.50;82.80;;;;;;5008062;28;20079;-80
2022/04/06 11:07:10;;;;;;;3.17;1.83;;;13.60;85.40;;;;;;4961574;28;20742;-81
2022/04/06 11:12:33;;;;;;;2.50;1.52;;;13.70;83.70;;;;;;5008377;28;20044;-81
2022/04/06 11:14:58;;;;;;;3.85;1.60;;;13.70;82.00;;;;;;4969561;28;20037;-81
2022/04/06 11:17:32;;;;;;;2.77;1.63;;;13.80;85.70;;;;;;4992804;28;20087;-82
2022/04/06 11:19:58;;;;;;;2.88;1.70;;;13.80;84.10;;;;;;4992328;28;20026;-82
2022/04/06 11:22:25;;;;;;;3.65;1.77;;;13.80;84.50;;;;;;4974706;28;20108;-82
2022/04/06 11:24:50;;;;;;;3.17;1.93;;;13.90;84.60;;;;;;4989633;28;20030;-82
2022/04/06 11:27:30;;;;;;;3.22;1.90;;;13.90;84.50;;;;;;4980890;28;20536;-83
2022/04/06 11:30:14;;;;;;;3.42;1.80;;;13.90;82.70;;;;;;4997795;28;20446;-83
2022/04/06 11:32:51;;;;;;;3.15;2.10;;;13.90;81.30;;;;;;5019048;28;20174;-84
2022/04/06 11:35:17;;;;;;;4.63;2.23;;;13.90;82.10;;;;;;4975435;28;20064;-82
2022/04/06 11:37:48;;;;;;;5.97;2.17;;;13.90;82.90;;;;;;4965996;28;20313;-84
2022/04/06 11:40:20;;;;;;;3.60;1.98;;;13.90;83.00;;;;;;4958347;28;20040;-83
2022/04/06 11:42:53;;;;;;;5.93;2.17;;;13.90;84.30;;;;;;4999281;28;20445;-83
2022/04/06 11:45:27;;;;;;;5.22;2.10;;;13.90;80.70;;;;;;4998594;28;20545;-81
2022/04/06 11:48:00;;;;;;;4.40;1.83;;;14.00;82.80;;;;;;5002922;28;20472;-81
2022/04/06 11:50:30;;;;;;;3.25;1.80;;;14.00;84.00;;;;;;4996627;28;20034;-81
2022/04/06 11:53:03;;;;;;;5.10;2.05;;;13.90;83.10;;;;;;4979899;28;20060;-81
2022/04/06 11:55:51;;;;;;;3.50;2.00;;;13.90;81.80;;;;;;4967646;28;20041;-82
2022/04/06 11:58:39;;;;;;;3.58;1.98;;;13.80;79.50;;;;;;4972838;28;20305;-82
2022/04/06 12:01:07;;;;;;;4.43;2.07;;;13.80;79.50;;;;;;5011083;28;20032;-80
2022/04/06 12:03:35;;;;;;;3.13;1.80;;;13.80;82.60;;;;;;5004796;28;20026;-82
2022/04/06 12:06:02;;;;;;;2.85;1.50;;;13.70;82.90;;;;;;5002670;28;20052;-81
2022/04/06 12:08:28;;;;;;;2.65;1.67;;;13.70;84.20;;;;;;4972123;28;20056;-82
2022/04/06 12:10:58;;;;;;;2.87;1.40;;;13.70;84.50;;;;;;4968711;28;20494;-81
2022/04/06 12:13:27;;;;;;;3.15;1.70;;;13.70;84.60;;;;;;4985943;28;20030;-81
2022/04/06 12:15:55;;;;;;;5.00;1.90;;;13.80;84.30;;;;;;4987268;28;20034;-80
2022/04/06 12:18:22;;;;;;;3.10;2.00;;;13.80;85.00;;;;;;4986287;28;20021;-81
2022/04/06 12:20:49;;;;;;;4.23;2.00;;;13.80;83.60;;;;;;5009993;28;20104;-81
2022/04/06 12:23:16;;;;;;;4.35;2.20;;;13.90;84.50;;;;;;4986876;28;20030;-81
2022/04/06 12:25:42;;;;;;;5.43;2.10;;;13.90;85.00;;;;;;4990493;28;20030;-80
2022/04/06 12:28:19;;;;;;;4.53;2.10;;;14.00;85.10;;;;;;4981487;28;21578;-82
2022/04/06 12:30:59;;;;;;;4.53;2.30;;;14.00;85.40;;;;;;4990159;28;20762;-82
2022/04/06 12:33:45;;;;;;;2.87;1.40;;;14.10;81.80;;;;;;5014206;28;20397;-81
2022/04/06 12:36:27;;;;;;;3.72;1.75;;;14.10;83.50;;;;;;4999684;28;20121;-82
2022/04/06 12:39:13;;;;;;;2.17;1.40;;;14.10;82.80;;;;;;5003582;28;20332;-82
2022/04/06 12:42:02;;;;;;;3.53;1.73;;;14.10;82.30;;;;;;4985384;28;20030;-81
2022/04/06 12:44:35;;;;;;;5.18;2.08;;;14.20;84.00;;;;;;5002608;28;20033;-81
2022/04/06 12:47:03;;;;;;;4.97;2.07;;;14.20;81.80;;;;;;4990247;28;20206;-81
2022/04/06 12:49:35;;;;;;;3.53;1.70;;;14.20;83.00;;;;;;4987479;28;20397;-82
2022/04/06 12:52:27;;;;;;;3.20;1.70;;;14.20;83.60;;;;;;5007346;28;20326;-81
2022/04/06 12:55:10;;;;;;;4.85;1.88;;;14.20;82.70;;;;;;4986627;28;20255;-81
2022/04/06 12:57:40;;;;;;;4.53;1.80;;;14.20;77.40;;;;;;4982356;28;20042;-81
2022/04/06 13:00:21;;;;;;;3.93;1.93;;;14.20;81.20;;;;;;4984348;28;20675;-82